Main page
METAR-TAF:

METAR-TAF

Airports :

Cranfield Airport

Cranfield, England

latitude: 52-04N, longitude: 000-37W, elevation: 111 m

Current weather observation

The report was made 29 minutes ago, at 14:50 UTC
Wind 16 kt from the West/Southwest
Temperature 16°C
Humidity 63%
Pressure 1018 hPa
Visibility 10 km or more
Broken clouds at a height of 3500 ft
light rain

METAR: EGTC 071450Z 24016KT 9999 -RA BKN035 16/09 Q1018

Time: 16:19 (15:19 UTC)

Forecast

The report was made 7 hours and 22 minutes ago, at 07:57 UTC
Forecast valid from 07 at 09 UTC to 07 at 16 UTC
Wind 10 kt from the Southwest
Visibility 10 km or more
Scattered clouds at a height of 4000 ft
Probability 30% :
Temporary
from 07 at 13 UTC to 07 at 16 UTC
Visibility: 8000 m
light rain

TAF: EGTC 070757Z 0709/0716 23010KT 9999 SCT040 PROB30 TEMPO 0713/0716 8000 -RA

Weather observations and forecasts of more than 4000 airports (METAR and TAF reports).

The available stations are represented by yellow and red dots on the map.

Hover mouse over dot to see the name of the station.

Then click to see weather observations and forecasts.

To change the map : click on the green buttons with a black cross to zoom in, on the green button with a dash to zoom out, or on the green arrows for adjacent maps.


METAR-TAF: